createdAt,value
2022-10-11T00:00:44.429Z,5.20
2022-10-11T00:03:17.358Z,5.57
2022-10-11T00:05:50.862Z,5.20
2022-10-11T00:08:21.047Z,5.53
2022-10-11T00:11:01.637Z,5.90
2022-10-11T00:13:32.666Z,5.05
2022-10-11T00:21:12.102Z,5.15
2022-10-11T00:23:43.585Z,5.10
2022-10-11T00:26:15.220Z,4.97
2022-10-11T00:28:45.789Z,5.03
2022-10-11T00:31:18.586Z,4.90
2022-10-11T00:33:52.563Z,5.15
2022-10-11T00:36:22.966Z,5.00
2022-10-11T00:38:53.653Z,5.28
2022-10-11T00:41:26.030Z,5.93
2022-10-11T00:44:21.690Z,4.80
2022-10-11T00:46:58.100Z,4.93
2022-10-11T00:49:39.852Z,4.82
2022-10-11T00:52:18.401Z,4.90
2022-10-11T00:54:50.579Z,4.97
2022-10-11T00:57:24.539Z,4.43
2022-10-11T00:59:58.207Z,4.88
2022-10-11T01:02:30.436Z,5.32
2022-10-11T01:05:27.562Z,5.40
2022-10-11T01:07:57.095Z,5.43
2022-10-11T01:10:30.240Z,5.57
2022-10-11T01:13:12.075Z,5.13
2022-10-11T01:15:49.626Z,5.05
2022-10-11T01:18:29.166Z,4.95
2022-10-11T01:21:10.083Z,4.60
2022-10-11T01:24:19.188Z,4.60
2022-10-11T01:27:32.338Z,4.63
2022-10-11T01:30:20.897Z,4.10
2022-10-11T01:33:01.860Z,5.30
2022-10-11T01:38:11.546Z,4.78
2022-10-11T01:40:51.857Z,5.15
2022-10-11T01:43:23.896Z,5.50
2022-10-11T01:45:59.674Z,4.65
2022-10-11T01:48:30.093Z,4.65
2022-10-11T01:51:05.412Z,4.90
2022-10-11T01:53:54.502Z,4.63
2022-10-11T01:56:41.382Z,5.18
2022-10-11T01:59:32.406Z,5.40
2022-10-11T02:02:16.583Z,5.22
2022-10-11T02:04:51.897Z,5.68
2022-10-11T02:07:31.221Z,5.65
2022-10-11T02:10:10.970Z,6.82
2022-10-11T02:12:46.850Z,7.20
2022-10-11T02:15:19.176Z,7.28
2022-10-11T02:17:59.186Z,7.32
2022-10-11T02:20:33.586Z,7.78
2022-10-11T02:23:09.621Z,7.32
2022-10-11T02:25:40.583Z,7.50
2022-10-11T02:30:45.817Z,21.30
2022-10-11T02:33:25.647Z,11.70
2022-10-11T02:36:06.981Z,10.10
2022-10-11T02:38:45.490Z,8.35
2022-10-11T02:41:26.609Z,8.07
2022-10-11T02:44:03.136Z,7.07
2022-10-11T02:46:34.694Z,19.90
2022-10-11T02:49:07.876Z,16.33
2022-10-11T02:51:39.474Z,7.95
2022-10-11T02:54:09.793Z,7.35
2022-10-11T02:56:39.971Z,7.13
2022-10-11T02:59:10.219Z,6.80
2022-10-11T03:01:40.765Z,7.93
2022-10-11T03:04:13.649Z,6.47
2022-10-11T03:06:43.887Z,7.20
2022-10-11T03:09:15.821Z,7.38
2022-10-11T03:11:46.012Z,7.55
2022-10-11T03:14:16.225Z,7.93
2022-10-11T03:16:46.347Z,7.00
2022-10-11T03:19:19.506Z,6.97
2022-10-11T03:21:49.893Z,7.57
2022-10-11T03:24:20.399Z,7.93
2022-10-11T03:26:50.904Z,29.67
2022-10-11T03:29:21.266Z,9.20
2022-10-11T03:31:51.524Z,6.53
2022-10-11T03:34:24.394Z,6.47
2022-10-11T03:36:54.597Z,6.00
2022-10-11T03:39:24.750Z,4.82
2022-10-11T03:41:54.851Z,6.17
2022-10-11T03:44:24.940Z,5.63
2022-10-11T03:46:55.022Z,4.10
2022-10-11T03:49:28.045Z,3.90
2022-10-11T03:51:58.304Z,3.75
2022-10-11T03:54:29.171Z,4.00
2022-10-11T03:59:29.401Z,5.10
2022-10-11T04:01:59.822Z,4.15
2022-10-11T04:04:32.871Z,3.90
2022-10-11T04:07:03.093Z,4.18
2022-10-11T04:09:33.780Z,3.72
2022-10-11T04:12:03.997Z,3.95
2022-10-11T04:14:34.176Z,3.17
2022-10-11T04:17:04.311Z,3.67
2022-10-11T04:19:37.404Z,3.47
2022-10-11T04:22:10.762Z,3.22
2022-10-11T04:24:41.161Z,2.80
2022-10-11T04:27:13.910Z,3.30
2022-10-11T04:29:44.254Z,3.05
2022-10-11T04:32:14.498Z,2.90
2022-10-11T04:34:47.331Z,2.47
2022-10-11T04:37:17.767Z,3.33
2022-10-11T04:39:48.619Z,2.55
2022-10-11T04:42:20.281Z,2.30
2022-10-11T04:44:50.770Z,2.17
2022-10-11T04:47:21.048Z,2.85
2022-10-11T04:49:53.978Z,2.08
2022-10-11T04:52:26.022Z,2.13
2022-10-11T04:54:56.378Z,2.17
2022-10-11T04:57:26.456Z,2.53
2022-10-11T04:59:56.609Z,1.97
2022-10-11T05:02:26.815Z,2.13
2022-10-11T05:04:59.871Z,2.00
2022-10-11T05:07:30.124Z,2.30
2022-10-11T05:10:00.684Z,2.72
2022-10-11T05:12:31.058Z,2.08
2022-10-11T05:15:01.385Z,1.90
2022-10-11T05:17:31.748Z,1.88
2022-10-11T05:20:04.869Z,2.10
2022-10-11T05:22:35.227Z,2.08
2022-10-11T05:25:05.469Z,2.33
2022-10-11T05:27:35.811Z,2.40
2022-10-11T05:30:07.584Z,2.40
2022-10-11T05:32:37.846Z,2.28
2022-10-11T05:35:12.223Z,2.33
2022-10-11T05:37:42.541Z,2.35
2022-10-11T05:40:14.399Z,2.70
2022-10-11T05:42:44.595Z,2.50
2022-10-11T05:45:14.713Z,2.77
2022-10-11T05:47:44.842Z,2.23
2022-10-11T05:50:20.803Z,2.70
2022-10-11T05:52:54.471Z,2.95
2022-10-11T05:55:24.861Z,3.08
2022-10-11T05:57:56.641Z,2.88
2022-10-11T06:00:28.060Z,3.03
2022-10-11T06:02:58.356Z,3.13
2022-10-11T06:05:31.267Z,2.60
2022-10-11T06:08:01.562Z,2.67
2022-10-11T06:10:31.899Z,3.70
2022-10-11T06:13:02.213Z,3.22
2022-10-11T06:15:32.688Z,2.75
2022-10-11T06:18:03.359Z,2.70
2022-10-11T06:20:36.372Z,3.00
2022-10-11T06:23:06.719Z,2.38
2022-10-11T06:25:36.930Z,2.30
2022-10-11T06:28:07.242Z,3.30
2022-10-11T06:30:37.565Z,2.35
2022-10-11T06:33:07.950Z,2.85
2022-10-11T06:35:40.846Z,3.28
2022-10-11T06:38:11.084Z,2.58
2022-10-11T06:40:41.458Z,2.60
2022-10-11T06:43:11.670Z,2.53
2022-10-11T06:45:41.847Z,3.50
2022-10-11T06:48:12.091Z,2.53
2022-10-11T06:50:59.506Z,2.20
2022-10-11T06:53:31.120Z,2.63
2022-10-11T06:56:06.533Z,2.78
2022-10-11T06:58:37.202Z,3.00
2022-10-11T07:01:10.782Z,3.53
2022-10-11T07:03:41.016Z,3.45
2022-10-11T07:06:17.078Z,4.10
2022-10-11T07:08:47.273Z,3.13
2022-10-11T07:11:21.092Z,3.40
2022-10-11T07:13:54.033Z,3.75
2022-10-11T07:16:25.378Z,3.38
2022-10-11T07:19:00.553Z,3.10
2022-10-11T07:21:36.640Z,3.40
2022-10-11T07:24:07.903Z,3.08
2022-10-11T07:26:39.106Z,3.25
2022-10-11T07:29:11.051Z,3.50
2022-10-11T07:31:44.193Z,3.42
2022-10-11T07:34:14.587Z,3.47
2022-10-11T07:36:47.453Z,2.95
2022-10-11T07:39:18.261Z,4.35
2022-10-11T07:41:48.552Z,3.30
2022-10-11T07:44:18.730Z,3.38
2022-10-11T07:46:48.930Z,2.88
2022-10-11T07:49:19.105Z,3.33
2022-10-11T07:51:52.245Z,3.20
2022-10-11T07:54:22.445Z,2.97
2022-10-11T07:56:52.789Z,3.17
2022-10-11T07:59:23.193Z,3.03
2022-10-11T08:01:53.794Z,2.50
2022-10-11T08:04:24.199Z,3.22
2022-10-11T08:06:57.092Z,3.45
2022-10-11T08:09:27.261Z,3.05
2022-10-11T08:11:57.372Z,3.07
2022-10-11T08:14:27.584Z,3.00
2022-10-11T08:16:57.755Z,2.50
2022-10-11T08:19:27.943Z,3.10
2022-10-11T08:22:00.853Z,2.50
2022-10-11T08:24:35.885Z,3.00
2022-10-11T08:27:11.374Z,2.85
2022-10-11T08:29:41.601Z,3.17
2022-10-11T08:32:12.616Z,2.88
2022-10-11T08:34:43.436Z,3.13
2022-10-11T08:39:47.342Z,3.65
2022-10-11T08:42:29.605Z,2.78
2022-10-11T08:45:11.011Z,2.70
2022-10-11T08:47:46.200Z,3.10
2022-10-11T08:50:22.472Z,2.55
2022-10-11T08:52:59.531Z,2.88
2022-10-11T08:55:38.088Z,3.78
2022-10-11T08:58:08.608Z,2.70
2022-10-11T09:00:41.037Z,2.53
2022-10-11T09:03:26.771Z,2.80
2022-10-11T09:06:14.999Z,2.83
2022-10-11T09:09:06.596Z,3.15
2022-10-11T09:11:54.248Z,2.50
2022-10-11T09:14:52.311Z,2.80
2022-10-11T09:17:40.435Z,2.55
2022-10-11T09:20:38.529Z,2.15
2022-10-11T09:23:24.578Z,3.20
2022-10-11T09:26:03.880Z,2.95
2022-10-11T09:28:51.062Z,2.50
2022-10-11T09:31:21.420Z,2.63
2022-10-11T09:33:54.218Z,2.17
2022-10-11T09:36:33.467Z,2.20
2022-10-11T09:39:13.926Z,2.17
2022-10-11T09:41:56.734Z,1.90
2022-10-11T09:44:29.639Z,2.45
2022-10-11T09:47:01.172Z,3.45
2022-10-11T09:49:39.225Z,2.00
2022-10-11T09:52:17.249Z,2.33
2022-10-11T09:54:49.576Z,1.92
2022-10-11T09:57:29.068Z,2.10
2022-10-11T10:00:12.958Z,1.80
2022-10-11T10:02:47.005Z,2.80
2022-10-11T10:05:22.071Z,2.00
2022-10-11T10:08:25.460Z,2.40
2022-10-11T10:11:04.447Z,2.08
2022-10-11T10:13:46.892Z,2.40
2022-10-11T10:16:27.536Z,2.10
2022-10-11T10:19:00.145Z,2.70
2022-10-11T10:21:34.243Z,2.28
2022-10-11T10:24:09.166Z,2.17
2022-10-11T10:26:40.118Z,2.20
2022-10-11T10:29:21.269Z,2.53
2022-10-11T10:32:14.914Z,3.65
2022-10-11T10:35:02.650Z,3.50
2022-10-11T10:37:38.035Z,2.63
2022-10-11T10:40:13.285Z,2.53
2022-10-11T10:42:43.618Z,2.30
2022-10-11T10:45:22.144Z,2.20
2022-10-11T10:48:14.569Z,2.50
2022-10-11T10:50:53.293Z,2.05
2022-10-11T10:53:30.929Z,2.30
2022-10-11T10:56:09.670Z,2.42
2022-10-11T10:58:59.847Z,2.67
2022-10-11T11:01:35.955Z,2.60
2022-10-11T11:04:15.677Z,2.40
2022-10-11T11:06:52.864Z,2.40
2022-10-11T11:09:41.631Z,2.35
2022-10-11T11:12:27.989Z,2.45
2022-10-11T11:15:07.266Z,2.22
2022-10-11T11:17:57.768Z,2.40
2022-10-11T11:20:39.092Z,2.17
2022-10-11T11:23:18.043Z,1.75
2022-10-11T11:25:58.492Z,1.88
2022-10-11T11:31:25.441Z,2.17
2022-10-11T11:34:09.327Z,2.83
2022-10-11T11:36:46.827Z,2.70
2022-10-11T11:39:23.799Z,2.33
2022-10-11T11:41:59.397Z,2.95
2022-10-11T11:44:34.932Z,2.38
2022-10-11T11:47:10.855Z,2.55
2022-10-11T11:49:49.360Z,2.78
2022-10-11T11:52:28.202Z,3.17
2022-10-11T11:55:07.616Z,2.50
2022-10-11T11:57:55.236Z,2.28
2022-10-11T12:00:28.506Z,2.58
2022-10-11T12:03:01.965Z,2.42
2022-10-11T12:05:37.538Z,2.63
2022-10-11T12:08:11.065Z,2.58
2022-10-11T12:10:57.715Z,2.30
2022-10-11T12:13:32.575Z,2.17
2022-10-11T12:16:14.105Z,3.33
2022-10-11T12:18:54.501Z,2.35
2022-10-11T12:21:33.545Z,2.58
2022-10-11T12:24:14.170Z,3.22
2022-10-11T12:26:47.466Z,2.70
2022-10-11T12:29:50.623Z,2.22
2022-10-11T12:32:52.085Z,2.85
2022-10-11T12:36:07.387Z,2.55
2022-10-11T12:38:42.535Z,2.40
2022-10-11T12:41:41.817Z,2.53
2022-10-11T12:44:24.627Z,3.30
2022-10-11T12:47:35.630Z,2.78
2022-10-11T12:50:19.101Z,2.60
2022-10-11T12:53:03.733Z,2.80
2022-10-11T12:55:49.975Z,2.80
2022-10-11T12:58:38.303Z,2.88
2022-10-11T13:01:22.811Z,2.70
2022-10-11T13:04:02.732Z,3.13
2022-10-11T13:06:38.294Z,2.70
2022-10-11T13:09:21.658Z,2.72
2022-10-11T13:11:59.181Z,2.47
2022-10-11T13:14:33.805Z,2.50
2022-10-11T13:17:16.009Z,2.20
2022-10-11T13:19:48.536Z,2.05
2022-10-11T13:22:26.324Z,2.75
2022-10-11T13:24:59.707Z,2.58
2022-10-11T13:27:32.829Z,2.22
2022-10-11T13:30:06.621Z,2.70
2022-10-11T13:32:39.457Z,2.25
2022-10-11T13:35:23.944Z,2.47
2022-10-11T13:37:55.443Z,2.42
2022-10-11T13:40:27.005Z,2.08
2022-10-11T13:43:00.571Z,2.30
2022-10-11T13:45:36.015Z,2.08
2022-10-11T13:48:06.589Z,2.10
2022-10-11T13:50:37.204Z,2.20
2022-10-11T13:53:26.128Z,2.20
2022-10-11T13:55:59.465Z,2.50
2022-10-11T13:58:38.786Z,1.98
2022-10-11T14:01:21.416Z,2.10
2022-10-11T14:03:59.602Z,2.25
2022-10-11T14:06:44.942Z,2.30
2022-10-11T14:09:23.907Z,2.05
2022-10-11T14:11:54.324Z,1.88
2022-10-11T14:17:19.296Z,2.17
2022-10-11T14:20:21.439Z,1.75
2022-10-11T14:22:54.637Z,2.47
2022-10-11T14:25:25.239Z,1.63
2022-10-11T14:30:31.629Z,1.80
2022-10-11T14:33:04.741Z,1.95
2022-10-11T14:35:40.373Z,1.90
2022-10-11T14:38:12.870Z,2.42
2022-10-11T14:40:43.108Z,2.67
2022-10-11T14:43:13.331Z,1.80
2022-10-11T14:45:43.518Z,1.92
2022-10-11T14:48:13.687Z,1.80
2022-10-11T14:50:51.544Z,2.53
2022-10-11T14:53:22.454Z,2.10
2022-10-11T14:55:53.366Z,2.03
2022-10-11T14:58:23.624Z,1.70
2022-10-11T15:00:53.788Z,1.73
2022-10-11T15:03:24.047Z,1.90
2022-10-11T15:05:58.205Z,1.90
2022-10-11T15:08:28.350Z,1.70
2022-10-11T15:10:58.547Z,1.70
2022-10-11T15:13:28.854Z,2.00
2022-10-11T15:15:59.358Z,1.88
2022-10-11T15:18:29.527Z,1.70
2022-10-11T15:21:02.330Z,1.77
2022-10-11T15:23:32.784Z,2.03
2022-10-11T15:26:03.086Z,1.80
2022-10-11T15:28:36.040Z,1.95
2022-10-11T15:31:06.331Z,1.70
2022-10-11T15:33:36.574Z,2.15
2022-10-11T15:36:13.368Z,1.70
2022-10-11T15:38:44.203Z,2.00
2022-10-11T15:41:15.807Z,1.95
2022-10-11T15:43:49.597Z,1.80
2022-10-11T15:46:22.795Z,1.83
2022-10-11T15:48:54.384Z,2.00
2022-10-11T15:51:27.643Z,1.95
2022-10-11T15:53:57.951Z,1.70
2022-10-11T15:56:32.967Z,1.88
2022-10-11T15:59:04.149Z,1.95
2022-10-11T16:01:34.373Z,1.63
2022-10-11T16:04:04.600Z,2.45
2022-10-11T16:06:37.420Z,2.17
2022-10-11T16:09:07.702Z,1.80
2022-10-11T16:11:37.936Z,1.92
2022-10-11T16:14:08.133Z,2.08
2022-10-11T16:16:38.364Z,1.90
2022-10-11T16:19:08.553Z,2.00
2022-10-11T16:21:41.422Z,2.60
2022-10-11T16:24:11.845Z,3.03
2022-10-11T16:26:42.152Z,3.35
2022-10-11T16:29:12.424Z,4.63
2022-10-11T16:31:42.596Z,5.30
2022-10-11T16:34:12.885Z,5.35
2022-10-11T16:36:45.999Z,4.60
2022-10-11T16:39:20.146Z,4.47
2022-10-11T16:41:50.756Z,4.57
2022-10-11T16:44:25.310Z,4.65
2022-10-11T16:46:55.574Z,6.07
2022-10-11T16:49:28.990Z,4.93
2022-10-11T16:52:04.097Z,4.70
2022-10-11T16:54:34.910Z,4.05
2022-10-11T16:57:05.082Z,3.78
2022-10-11T16:59:35.402Z,3.53
2022-10-11T17:02:06.204Z,3.50
2022-10-11T17:04:36.679Z,3.05
2022-10-11T17:07:12.543Z,2.83
2022-10-11T17:09:44.279Z,3.28
2022-10-11T17:12:16.599Z,4.32
2022-10-11T17:14:47.074Z,3.97
2022-10-11T17:17:17.699Z,3.60
2022-10-11T17:19:48.299Z,3.72
2022-10-11T17:22:22.744Z,3.55
2022-10-11T17:24:52.914Z,3.00
2022-10-11T17:27:23.335Z,3.07
2022-10-11T17:29:53.543Z,3.00
2022-10-11T17:32:23.682Z,2.33
2022-10-11T17:34:53.980Z,2.90
2022-10-11T17:37:26.826Z,2.38
2022-10-11T17:39:57.916Z,2.33
2022-10-11T17:42:28.125Z,2.53
2022-10-11T17:44:58.324Z,2.57
2022-10-11T17:47:28.522Z,2.23
2022-10-11T17:49:58.614Z,2.53
2022-10-11T17:52:31.420Z,1.97
2022-10-11T17:55:01.557Z,2.60
2022-10-11T17:57:31.761Z,2.53
2022-10-11T18:00:02.152Z,1.80
2022-10-11T18:02:34.907Z,2.17
2022-10-11T18:05:05.330Z,1.77
2022-10-11T18:07:38.188Z,2.65
2022-10-11T18:10:09.832Z,3.60
2022-10-11T18:12:40.508Z,3.13
2022-10-11T18:15:13.044Z,2.83
2022-10-11T18:17:43.160Z,6.13
2022-10-11T18:20:14.796Z,5.90
2022-10-11T18:22:47.516Z,4.97
2022-10-11T18:25:17.887Z,3.42
2022-10-11T18:27:48.159Z,4.75
2022-10-11T18:30:18.541Z,3.00
2022-10-11T18:32:48.764Z,2.75
2022-10-11T18:35:19.178Z,2.77
2022-10-11T18:38:00.027Z,3.80
2022-10-11T18:40:31.102Z,3.97
2022-10-11T18:43:01.292Z,3.50
2022-10-11T18:45:31.430Z,2.33
2022-10-11T18:48:01.722Z,3.73
2022-10-11T18:50:35.052Z,2.70
2022-10-11T18:53:07.792Z,2.42
2022-10-11T18:55:37.873Z,2.42
2022-10-11T18:58:07.973Z,2.03
2022-10-11T19:00:41.181Z,2.10
2022-10-11T19:03:11.719Z,2.33
2022-10-11T19:05:42.182Z,2.00
2022-10-11T19:08:15.024Z,2.20
2022-10-11T19:10:45.123Z,2.53
2022-10-11T19:13:15.241Z,2.60
2022-10-11T19:15:45.401Z,2.60
2022-10-11T19:18:20.257Z,2.47
2022-10-11T19:20:50.593Z,3.13
2022-10-11T19:23:23.781Z,2.77
2022-10-11T19:25:53.870Z,2.63
2022-10-11T19:28:24.054Z,3.00
2022-10-11T19:30:54.234Z,3.20
2022-10-11T19:33:24.372Z,3.38
2022-10-11T19:35:57.733Z,3.77
2022-10-11T19:38:30.446Z,4.45
2022-10-11T19:41:00.607Z,3.85
2022-10-11T19:43:31.179Z,3.33
2022-10-11T19:46:05.741Z,3.13
2022-10-11T19:48:39.283Z,3.30
2022-10-11T19:51:12.712Z,3.72
2022-10-11T19:53:46.501Z,3.60
2022-10-11T19:56:19.667Z,3.58
2022-10-11T19:58:49.755Z,3.92
2022-10-11T20:01:23.119Z,3.40
2022-10-11T20:03:55.878Z,3.40
2022-10-11T20:06:28.349Z,3.85
2022-10-11T20:09:27.445Z,3.50
2022-10-11T20:11:51.740Z,3.88
2022-10-11T20:14:21.930Z,3.10
2022-10-11T20:16:53.350Z,3.33
2022-10-11T20:19:30.543Z,3.47
2022-10-11T20:22:02.607Z,3.33
2022-10-11T20:24:35.663Z,3.13
2022-10-11T20:27:07.179Z,3.03
2022-10-11T20:29:37.282Z,2.90
2022-10-11T20:32:07.512Z,3.00
2022-10-11T20:34:39.603Z,2.90
2022-10-11T20:37:09.855Z,3.13
2022-10-11T20:39:42.651Z,3.07
2022-10-11T20:42:12.824Z,2.78
2022-10-11T20:44:43.846Z,3.17
2022-10-11T20:47:13.990Z,2.55
2022-10-11T20:49:44.089Z,2.90
2022-10-11T20:52:14.263Z,2.50
2022-10-11T20:54:47.030Z,2.83
2022-10-11T20:57:17.151Z,3.25
2022-10-11T20:59:47.843Z,3.00
2022-10-11T21:02:19.051Z,3.90
2022-10-11T21:04:49.320Z,3.83
2022-10-11T21:07:19.435Z,4.03
2022-10-11T21:09:52.195Z,3.60
2022-10-11T21:12:22.230Z,3.40
2022-10-11T21:14:52.378Z,3.78
2022-10-11T21:17:22.511Z,3.60
2022-10-11T21:19:52.626Z,3.50
2022-10-11T21:22:22.934Z,4.13
2022-10-11T21:24:55.692Z,3.63
2022-10-11T21:27:25.848Z,3.85
2022-10-11T21:29:56.241Z,3.93
2022-10-11T21:32:26.983Z,4.22
2022-10-11T21:34:57.133Z,3.30
2022-10-11T21:37:27.348Z,4.03
2022-10-11T21:40:00.149Z,3.30
2022-10-11T21:42:30.333Z,3.40
2022-10-11T21:45:00.803Z,3.30
2022-10-11T21:47:31.563Z,3.90
2022-10-11T21:50:01.920Z,4.28
2022-10-11T21:52:32.234Z,3.20
2022-10-11T21:55:05.163Z,3.83
2022-10-11T21:57:35.345Z,3.63
2022-10-11T22:00:05.768Z,3.43
2022-10-11T22:02:43.622Z,3.05
2022-10-11T22:05:13.855Z,3.38
2022-10-11T22:07:43.994Z,2.83
2022-10-11T22:10:16.691Z,2.83
2022-10-11T22:12:49.648Z,2.92
2022-10-11T22:15:20.072Z,3.00
2022-10-11T22:17:50.206Z,3.58
2022-10-11T22:20:20.731Z,2.70
2022-10-11T22:22:50.976Z,2.70
2022-10-11T22:25:24.012Z,2.60
2022-10-11T22:27:54.140Z,2.83
2022-10-11T22:30:24.182Z,2.83
2022-10-11T22:32:54.642Z,2.80
2022-10-11T22:35:24.777Z,2.85
2022-10-11T22:37:55.652Z,2.50
2022-10-11T22:40:31.422Z,2.60
2022-10-11T22:43:01.558Z,2.83
2022-10-11T22:45:34.682Z,2.73
2022-10-11T22:48:04.918Z,3.17
2022-10-11T22:50:35.069Z,2.77
2022-10-11T22:53:05.194Z,2.85
2022-10-11T22:55:38.733Z,2.67
2022-10-11T22:58:09.131Z,2.55
2022-10-11T23:00:39.771Z,2.58
2022-10-11T23:03:10.173Z,2.35
2022-10-11T23:05:41.572Z,2.42
2022-10-11T23:08:12.292Z,2.83
2022-10-11T23:10:45.178Z,2.40
2022-10-11T23:13:15.260Z,3.92
2022-10-11T23:15:45.486Z,2.57
2022-10-11T23:18:18.266Z,2.90
2022-10-11T23:20:51.098Z,2.97
2022-10-11T23:23:21.394Z,3.50
2022-10-11T23:26:06.764Z,2.80
2022-10-11T23:28:37.295Z,3.15
2022-10-11T23:31:12.587Z,3.25
2022-10-11T23:33:42.765Z,2.90
2022-10-11T23:36:18.041Z,2.60
2022-10-11T23:38:54.307Z,2.80
2022-10-11T23:41:29.912Z,3.20
2022-10-11T23:44:00.953Z,3.35
2022-10-11T23:49:01.317Z,2.78
2022-10-11T23:51:31.580Z,3.47
2022-10-11T23:54:03.842Z,3.30
2022-10-11T23:56:36.837Z,3.35
2022-10-11T23:59:07.029Z,2.85
